Time;durP1;ratioP1;P1;durP2;ratioP2;P2;SDS_P1;SDS_P2;PMS_P1;PMS_P2;Temp;Humidity;BMP_temperature;BMP_pressure;BME280_temperature;BME280_humidity;BME280_pressure;Samples;Min_cycle;Max_cycle;Signal;HPM_P1;HPM_P2
2021/09/16 00:02:15;;;;;;;6.90;2.83;;;;;;;;;;4893228;29;20020;-84
2021/09/16 00:05:01;;;;;;;9.77;3.03;;;;;;;;;;4897142;29;20031;-84
2021/09/16 00:07:46;;;;;;;5.13;3.03;;;;;;;;;;4893030;29;20042;-84
2021/09/16 00:10:31;;;;;;;5.00;3.13;;;;;;;;;;4898200;29;20059;-84
2021/09/16 00:13:16;;;;;;;7.43;3.97;;;;;;;;;;4898197;29;20024;-84
2021/09/16 00:16:02;;;;;;;10.07;4.22;;;;;;;;;;4897159;29;20032;-84
2021/09/16 00:18:47;;;;;;;5.90;2.97;;;;;;;;;;4896367;29;20338;-84
2021/09/16 00:21:32;;;;;;;9.82;3.67;;;;;;;;;;4897547;29;20059;-84
2021/09/16 00:24:17;;;;;;;9.48;5.10;;;;;;;;;;4894937;29;20028;-84
2021/09/16 00:27:03;;;;;;;11.02;3.80;;;;;;;;;;4896281;29;20024;-84
2021/09/16 00:29:48;;;;;;;5.32;2.80;;;;;;;;;;4901515;29;20024;-86
2021/09/16 00:32:34;;;;;;;3.85;2.40;;;;;;;;;;4891341;29;20463;-84
2021/09/16 00:35:19;;;;;;;6.03;3.10;;;;;;;;;;4911293;29;20040;-85
2021/09/16 00:38:04;;;;;;;3.92;2.65;;;;;;;;;;4899512;29;20040;-85
2021/09/16 00:40:50;;;;;;;7.70;2.95;;;;;;;;;;4895970;29;20079;-85
2021/09/16 00:43:35;;;;;;;6.78;3.33;;;;;;;;;;4917890;29;20127;-84
2021/09/16 00:46:21;;;;;;;7.45;4.05;;;;;;;;;;4897683;29;20531;-85
2021/09/16 00:49:07;;;;;;;13.88;5.57;;;;;;;;;;4894504;29;20473;-85
2021/09/16 00:51:52;;;;;;;13.15;4.93;;;;;;;;;;4892495;29;20039;-84
2021/09/16 00:54:39;;;;;;;13.30;5.53;;;;;;;;;;4897697;29;20028;-84
2021/09/16 00:57:24;;;;;;;16.42;4.10;;;;;;;;;;4897615;29;20031;-85
2021/09/16 01:00:10;;;;;;;7.93;3.45;;;;;;;;;;4896262;29;20036;-85
2021/09/16 01:02:55;;;;;;;4.35;2.45;;;;;;;;;;4897358;29;20123;-84
2021/09/16 01:05:40;;;;;;;7.10;3.15;;;;;;;;;;4896191;29;20027;-84
2021/09/16 01:08:26;;;;;;;4.68;2.60;;;;;;;;;;4891991;29;20020;-84
2021/09/16 01:11:12;;;;;;;6.70;2.25;;;;;;;;;;4909958;29;20032;-84
2021/09/16 01:13:57;;;;;;;8.48;2.78;;;;;;;;;;4896538;29;20039;-85
2021/09/16 01:16:43;;;;;;;8.38;2.95;;;;;;;;;;4892750;29;20562;-84
2021/09/16 01:19:28;;;;;;;6.85;3.13;;;;;;;;;;4896502;29;20028;-84
2021/09/16 01:22:22;;;;;;;8.18;3.50;;;;;;;;;;4890100;29;20032;-84
2021/09/16 01:25:08;;;;;;;8.07;3.55;;;;;;;;;;4892065;29;20231;-85
2021/09/16 01:27:54;;;;;;;6.97;3.10;;;;;;;;;;4897357;29;20039;-85
2021/09/16 01:30:39;;;;;;;5.88;3.10;;;;;;;;;;4889234;29;20032;-85
2021/09/16 01:33:24;;;;;;;6.38;2.50;;;;;;;;;;4897377;29;20052;-85
2021/09/16 01:36:10;;;;;;;5.93;2.70;;;;;;;;;;4896848;29;20515;-84
2021/09/16 01:38:55;;;;;;;5.55;2.60;;;;;;;;;;4896759;29;20472;-84
2021/09/16 01:41:41;;;;;;;7.10;2.80;;;;;;;;;;4897241;29;20035;-85
2021/09/16 01:44:26;;;;;;;11.32;2.67;;;;;;;;;;4897398;29;20039;-84
2021/09/16 01:47:11;;;;;;;7.18;2.80;;;;;;;;;;4897260;29;20028;-85
2021/09/16 01:49:57;;;;;;;8.25;2.47;;;;;;;;;;4896372;29;20135;-83
2021/09/16 01:52:42;;;;;;;4.97;2.28;;;;;;;;;;4892852;29;20032;-83
2021/09/16 01:55:27;;;;;;;4.03;2.55;;;;;;;;;;4886320;29;20039;-84
2021/09/16 01:58:13;;;;;;;9.88;2.85;;;;;;;;;;4900403;29;20078;-84
2021/09/16 02:00:58;;;;;;;4.97;2.15;;;;;;;;;;4904842;29;20039;-84
2021/09/16 02:03:43;;;;;;;6.07;2.08;;;;;;;;;;4889669;29;20104;-84
2021/09/16 02:06:29;;;;;;;3.45;1.92;;;;;;;;;;4894214;29;20024;-84
2021/09/16 02:09:14;;;;;;;5.55;1.75;;;;;;;;;;4900675;29;20016;-84
2021/09/16 02:11:59;;;;;;;6.38;2.20;;;;;;;;;;4900078;29;20024;-85
2021/09/16 02:14:44;;;;;;;6.95;2.15;;;;;;;;;;4899989;29;20037;-84
2021/09/16 02:17:30;;;;;;;5.57;1.90;;;;;;;;;;4899134;29;20035;-85
2021/09/16 02:20:15;;;;;;;3.63;1.88;;;;;;;;;;4911636;29;20107;-84
2021/09/16 02:23:00;;;;;;;5.35;2.58;;;;;;;;;;4908283;29;20022;-84
2021/09/16 02:25:46;;;;;;;4.30;1.83;;;;;;;;;;4904311;29;20032;-84
2021/09/16 02:28:31;;;;;;;3.58;1.73;;;;;;;;;;4906452;29;20020;-84
2021/09/16 02:31:16;;;;;;;3.38;1.58;;;;;;;;;;4899369;29;20024;-84
2021/09/16 02:34:02;;;;;;;3.55;1.52;;;;;;;;;;4907195;29;20036;-84
2021/09/16 02:36:47;;;;;;;4.18;1.83;;;;;;;;;;4908620;29;20484;-84
2021/09/16 02:39:32;;;;;;;3.70;1.80;;;;;;;;;;4896268;29;20531;-85
2021/09/16 02:42:17;;;;;;;3.53;1.70;;;;;;;;;;4903863;29;20044;-85
2021/09/16 02:45:03;;;;;;;4.53;2.53;;;;;;;;;;4906551;29;20028;-85
2021/09/16 02:47:49;;;;;;;2.17;1.50;;;;;;;;;;4899159;29;20020;-85
2021/09/16 02:50:34;;;;;;;3.97;2.05;;;;;;;;;;4900351;29;20152;-85
2021/09/16 02:53:19;;;;;;;2.55;1.98;;;;;;;;;;4894825;29;20028;-85
2021/09/16 02:56:05;;;;;;;7.43;1.88;;;;;;;;;;4898674;29;20034;-85
2021/09/16 02:58:50;;;;;;;6.80;1.70;;;;;;;;;;4899388;29;20067;-84
2021/09/16 03:01:35;;;;;;;4.75;1.60;;;;;;;;;;4899421;29;20158;-86
2021/09/16 03:04:20;;;;;;;4.35;1.85;;;;;;;;;;4899023;29;20016;-85
2021/09/16 03:07:06;;;;;;;5.32;2.00;;;;;;;;;;4899350;29;20036;-84
2021/09/16 03:09:51;;;;;;;2.15;1.52;;;;;;;;;;4894958;29;20040;-85
2021/09/16 03:12:36;;;;;;;4.78;1.50;;;;;;;;;;4898519;29;20126;-85
2021/09/16 03:15:22;;;;;;;3.88;1.90;;;;;;;;;;4895571;29;20024;-85
2021/09/16 03:18:07;;;;;;;1.95;1.20;;;;;;;;;;4902575;29;20024;-84
2021/09/16 03:20:53;;;;;;;2.50;1.60;;;;;;;;;;4908376;29;20093;-84
2021/09/16 03:23:39;;;;;;;3.40;1.55;;;;;;;;;;4901585;29;20020;-84
2021/09/16 03:26:24;;;;;;;2.97;1.63;;;;;;;;;;4899139;29;20039;-85
2021/09/16 03:29:09;;;;;;;2.75;1.65;;;;;;;;;;4899709;29;20028;-86
2021/09/16 03:31:54;;;;;;;3.22;1.40;;;;;;;;;;4899818;29;20024;-86
2021/09/16 03:34:40;;;;;;;4.15;1.88;;;;;;;;;;4900313;29;20032;-85
2021/09/16 03:37:25;;;;;;;4.38;1.42;;;;;;;;;;4901572;29;20032;-84
2021/09/16 03:40:10;;;;;;;3.53;1.65;;;;;;;;;;4912902;29;20107;-85
2021/09/16 03:42:56;;;;;;;3.20;1.70;;;;;;;;;;4915348;29;20043;-85
2021/09/16 03:45:41;;;;;;;3.35;1.70;;;;;;;;;;4923209;29;20079;-86
2021/09/16 03:48:26;;;;;;;2.00;1.73;;;;;;;;;;4917008;29;20056;-86
2021/09/16 03:51:12;;;;;;;2.95;1.83;;;;;;;;;;4913476;29;20110;-86
2021/09/16 03:53:57;;;;;;;4.35;2.15;;;;;;;;;;4917514;29;20024;-84
2021/09/16 03:56:42;;;;;;;3.00;1.60;;;;;;;;;;4925410;29;20402;-84
2021/09/16 03:59:28;;;;;;;4.55;1.98;;;;;;;;;;4918212;29;20059;-86
2021/09/16 04:02:13;;;;;;;3.50;1.88;;;;;;;;;;4915184;29;20051;-84
2021/09/16 04:04:58;;;;;;;5.22;1.70;;;;;;;;;;4915765;29;20511;-84
2021/09/16 04:07:44;;;;;;;3.42;2.35;;;;;;;;;;4916383;29;20330;-85
2021/09/16 04:10:29;;;;;;;2.97;2.00;;;;;;;;;;4917614;29;20070;-85
2021/09/16 04:13:14;;;;;;;3.13;1.98;;;;;;;;;;4916074;29;20019;-85
2021/09/16 04:15:59;;;;;;;4.90;1.83;;;;;;;;;;4916863;29;20043;-84
2021/09/16 04:18:45;;;;;;;3.95;1.80;;;;;;;;;;4918840;29;20035;-84
2021/09/16 04:21:30;;;;;;;9.27;1.90;;;;;;;;;;4917403;29;20027;-84
2021/09/16 04:24:16;;;;;;;8.18;2.83;;;;;;;;;;4915833;29;20043;-85
2021/09/16 04:27:01;;;;;;;5.28;2.00;;;;;;;;;;4909564;29;20725;-86
2021/09/16 04:29:47;;;;;;;12.40;3.40;;;;;;;;;;4916076;29;20032;-85
2021/09/16 04:32:32;;;;;;;6.60;2.10;;;;;;;;;;4915886;29;20032;-85
2021/09/16 04:35:17;;;;;;;5.70;2.10;;;;;;;;;;4916702;29;20086;-85
2021/09/16 04:38:02;;;;;;;5.38;2.22;;;;;;;;;;4910235;29;20027;-84
2021/09/16 04:40:48;;;;;;;4.03;1.80;;;;;;;;;;4916654;29;20083;-84
2021/09/16 04:43:33;;;;;;;4.45;2.63;;;;;;;;;;4918304;29;20032;-83
2021/09/16 04:46:18;;;;;;;4.68;1.90;;;;;;;;;;4916798;29;20054;-85
2021/09/16 04:49:04;;;;;;;3.15;1.95;;;;;;;;;;4916314;29;20024;-85
2021/09/16 04:51:49;;;;;;;3.35;1.95;;;;;;;;;;4916704;29;20119;-85
2021/09/16 04:54:34;;;;;;;4.15;1.67;;;;;;;;;;4914060;29;20039;-85
2021/09/16 04:57:19;;;;;;;3.28;2.10;;;;;;;;;;4916653;29;20100;-84
2021/09/16 05:00:05;;;;;;;5.80;2.28;;;;;;;;;;4915775;29;20034;-85
2021/09/16 05:02:50;;;;;;;3.35;1.75;;;;;;;;;;4899936;29;20414;-84
2021/09/16 05:05:35;;;;;;;6.93;2.13;;;;;;;;;;4915820;29;20031;-84
2021/09/16 05:08:21;;;;;;;4.38;2.20;;;;;;;;;;4916132;29;20036;-84
2021/09/16 05:11:06;;;;;;;3.20;2.03;;;;;;;;;;4918847;29;20122;-83
2021/09/16 05:13:51;;;;;;;4.70;2.40;;;;;;;;;;4916426;29;20032;-85
2021/09/16 05:16:37;;;;;;;4.47;2.15;;;;;;;;;;4915904;29;20083;-84
2021/09/16 05:19:22;;;;;;;7.30;2.58;;;;;;;;;;4916398;29;20015;-84
2021/09/16 05:22:07;;;;;;;4.63;2.00;;;;;;;;;;4915609;29;20067;-84
2021/09/16 05:24:53;;;;;;;4.00;2.78;;;;;;;;;;4915712;29;20020;-84
2021/09/16 05:27:38;;;;;;;5.47;2.35;;;;;;;;;;4914897;29;20471;-85
2021/09/16 05:30:23;;;;;;;4.28;2.10;;;;;;;;;;4918639;29;20027;-87
2021/09/16 05:33:09;;;;;;;7.70;3.13;;;;;;;;;;4920232;29;20055;-90
2021/09/16 05:35:54;;;;;;;6.80;2.13;;;;;;;;;;4914372;29;20515;-83
2021/09/16 05:38:40;;;;;;;5.75;2.90;;;;;;;;;;4921072;29;20047;-90
2021/09/16 05:41:25;;;;;;;4.50;2.65;;;;;;;;;;4918143;29;20098;-87
2021/09/16 05:44:10;;;;;;;6.95;2.50;;;;;;;;;;4915542;29;20044;-88
2021/09/16 05:46:56;;;;;;;8.82;3.17;;;;;;;;;;4919496;29;20062;-87
2021/09/16 05:49:41;;;;;;;5.57;2.40;;;;;;;;;;4919594;29;20024;-85
2021/09/16 05:52:26;;;;;;;4.68;2.63;;;;;;;;;;4901632;29;20023;-85
2021/09/16 05:55:12;;;;;;;8.27;3.35;;;;;;;;;;4920838;29;20031;-84
2021/09/16 05:57:57;;;;;;;5.60;2.80;;;;;;;;;;4917362;29;20043;-85
2021/09/16 06:00:42;;;;;;;7.63;3.55;;;;;;;;;;4914174;29;20059;-86
2021/09/16 06:03:28;;;;;;;9.75;2.97;;;;;;;;;;4912965;29;20050;-85
2021/09/16 06:06:13;;;;;;;4.95;2.85;;;;;;;;;;4910914;29;20532;-86
2021/09/16 06:08:59;;;;;;;10.70;3.60;;;;;;;;;;4916860;29;20020;-86
2021/09/16 06:11:44;;;;;;;5.90;3.38;;;;;;;;;;4919562;29;20028;-85
2021/09/16 06:14:30;;;;;;;6.70;3.22;;;;;;;;;;4920302;29;20107;-85
2021/09/16 06:17:15;;;;;;;7.05;3.35;;;;;;;;;;4919256;29;20024;-86
2021/09/16 06:20:04;;;;;;;7.82;2.95;;;;;;;;;;4925149;29;20039;-86
2021/09/16 06:22:50;;;;;;;5.28;3.10;;;;;;;;;;4914641;29;20031;-85
2021/09/16 06:25:35;;;;;;;10.18;3.45;;;;;;;;;;4918844;29;20062;-86
2021/09/16 06:28:21;;;;;;;9.10;2.55;;;;;;;;;;4904871;29;20030;-86
2021/09/16 06:31:06;;;;;;;4.00;2.65;;;;;;;;;;4914434;29;20031;-86
2021/09/16 06:33:51;;;;;;;8.40;3.00;;;;;;;;;;4918734;29;20024;-84
2021/09/16 06:36:37;;;;;;;6.63;2.65;;;;;;;;;;4917111;29;20111;-84
2021/09/16 06:39:22;;;;;;;6.55;2.75;;;;;;;;;;4918818;29;20114;-83
2021/09/16 06:42:08;;;;;;;8.38;2.70;;;;;;;;;;4904293;29;20035;-82
2021/09/16 06:44:53;;;;;;;5.88;3.13;;;;;;;;;;4916874;29;20039;-84
2021/09/16 06:47:38;;;;;;;10.10;2.80;;;;;;;;;;4914253;29;20092;-86
2021/09/16 06:50:24;;;;;;;12.15;3.25;;;;;;;;;;4916471;29;20023;-86
2021/09/16 06:53:12;;;;;;;4.57;2.78;;;;;;;;;;4904397;29;20030;-83
2021/09/16 06:56:00;;;;;;;4.55;2.92;;;;;;;;;;4912427;29;20023;-83
2021/09/16 06:58:46;;;;;;;6.40;2.85;;;;;;;;;;4916828;29;20388;-84
2021/09/16 07:01:32;;;;;;;8.88;3.63;;;;;;;;;;4918127;29;20031;-84
2021/09/16 07:04:17;;;;;;;6.95;3.25;;;;;;;;;;4917764;29;20031;-83
2021/09/16 07:07:04;;;;;;;5.35;2.70;;;;;;;;;;4917928;29;20031;-84
2021/09/16 07:09:49;;;;;;;6.57;3.33;;;;;;;;;;4918105;29;20039;-84
2021/09/16 07:12:35;;;;;;;8.40;3.33;;;;;;;;;;4918329;29;20020;-83
2021/09/16 07:15:20;;;;;;;8.00;2.97;;;;;;;;;;4917332;29;20099;-83
2021/09/16 07:18:05;;;;;;;6.68;2.95;;;;;;;;;;4917727;29;20114;-84
2021/09/16 07:20:51;;;;;;;3.75;2.60;;;;;;;;;;4917465;29;20058;-84
2021/09/16 07:23:36;;;;;;;10.68;3.88;;;;;;;;;;4917768;29;20031;-83
2021/09/16 07:26:21;;;;;;;6.07;3.13;;;;;;;;;;4916522;29;20023;-84
2021/09/16 07:29:06;;;;;;;7.38;3.20;;;;;;;;;;4914829;29;20040;-84
2021/09/16 07:31:52;;;;;;;6.85;3.25;;;;;;;;;;4913290;29;20030;-84
2021/09/16 07:34:38;;;;;;;6.65;3.28;;;;;;;;;;4917789;29;20056;-82
2021/09/16 07:37:23;;;;;;;4.93;2.85;;;;;;;;;;4916940;29;20035;-90
2021/09/16 07:40:09;;;;;;;4.63;2.65;;;;;;;;;;4903034;29;20416;-84
2021/09/16 07:42:54;;;;;;;7.70;2.72;;;;;;;;;;4911684;29;20066;-82
2021/09/16 07:45:40;;;;;;;6.78;2.92;;;;;;;;;;4916569;29;20026;-83
2021/09/16 07:48:25;;;;;;;4.78;3.20;;;;;;;;;;4917629;29;20843;-82
2021/09/16 07:51:10;;;;;;;6.38;3.08;;;;;;;;;;4911397;29;20160;-84
2021/09/16 07:53:55;;;;;;;8.38;3.13;;;;;;;;;;4913307;29;20102;-84
2021/09/16 07:56:41;;;;;;;4.15;2.50;;;;;;;;;;4913249;29;20078;-83
2021/09/16 08:02:54;;;;;;;5.07;1.95;;;;;;;;;;4917908;29;20439;-84
2021/09/16 08:05:40;;;;;;;2.88;2.00;;;;;;;;;;4915573;29;20032;-83
2021/09/16 08:08:25;;;;;;;4.70;2.13;;;;;;;;;;4917474;29;20775;-83
2021/09/16 08:11:10;;;;;;;1.75;1.48;;;;;;;;;;4903533;29;20039;-83
2021/09/16 08:13:55;;;;;;;4.20;2.08;;;;;;;;;;4912588;29;20059;-83
2021/09/16 08:16:41;;;;;;;2.13;1.30;;;;;;;;;;4910858;29;20038;-84
2021/09/16 08:19:27;;;;;;;2.65;1.40;;;;;;;;;;4911796;29;20035;-84
2021/09/16 08:22:12;;;;;;;1.50;1.40;;;;;;;;;;4915426;29;20024;-84
2021/09/16 08:24:57;;;;;;;3.00;1.02;;;;;;;;;;4915152;29;20035;-84
2021/09/16 08:27:43;;;;;;;1.38;1.02;;;;;;;;;;4916213;29;20470;-82
2021/09/16 08:30:28;;;;;;;1.23;0.90;;;;;;;;;;4915322;29;20039;-85
2021/09/16 08:33:14;;;;;;;1.00;0.90;;;;;;;;;;4913753;29;20398;-84
2021/09/16 08:36:00;;;;;;;1.58;1.15;;;;;;;;;;4912281;29;20079;-84
2021/09/16 08:38:45;;;;;;;1.98;1.23;;;;;;;;;;4901662;29;20901;-84
2021/09/16 08:41:33;;;;;;;2.38;1.40;;;;;;;;;;4915939;29;20129;-87
2021/09/16 08:44:19;;;;;;;1.00;0.90;;;;;;;;;;4915210;29;20032;-87
2021/09/16 08:47:05;;;;;;;2.55;1.25;;;;;;;;;;4915528;29;20118;-85
2021/09/16 08:49:52;;;;;;;1.10;1.00;;;;;;;;;;4915324;29;20480;-85
2021/09/16 08:52:45;;;;;;;0.80;0.80;;;;;;;;;;4914457;29;20112;-83
2021/09/16 08:55:30;;;;;;;1.10;0.90;;;;;;;;;;4914806;29;20052;-84
2021/09/16 08:58:17;;;;;;;2.85;0.80;;;;;;;;;;4901524;29;20193;-84
2021/09/16 09:01:02;;;;;;;4.03;1.17;;;;;;;;;;4915733;29;20028;-85
2021/09/16 09:03:48;;;;;;;1.17;0.90;;;;;;;;;;4915430;29;20035;-83
2021/09/16 09:06:36;;;;;;;5.45;1.30;;;;;;;;;;4922533;29;20028;-83
2021/09/16 09:09:23;;;;;;;2.03;0.90;;;;;;;;;;4917297;29;20654;-85
2021/09/16 09:12:10;;;;;;;2.78;0.90;;;;;;;;;;4925629;29;20053;-83
2021/09/16 09:14:55;;;;;;;1.20;1.10;;;;;;;;;;4921364;29;20139;-84
2021/09/16 09:17:41;;;;;;;1.77;1.10;;;;;;;;;;4918913;29;20765;-85
2021/09/16 09:20:26;;;;;;;2.38;1.90;;;;;;;;;;4925183;29;20042;-86
2021/09/16 09:23:21;;;;;;;6.18;3.05;;;;;;;;;;4921366;29;20031;-86
2021/09/16 09:26:22;;;;;;;4.95;3.35;;;;;;;;;;4916705;29;20039;-86
2021/09/16 09:29:07;;;;;;;5.35;3.83;;;;;;;;;;4917900;29;20020;-86
2021/09/16 09:31:55;;;;;;;6.35;4.63;;;;;;;;;;4919874;29;20031;-88
2021/09/16 09:34:40;;;;;;;8.27;5.70;;;;;;;;;;4908842;29;20318;-88
2021/09/16 09:37:25;;;;;;;11.45;4.60;;;;;;;;;;4923208;29;20379;-88
2021/09/16 09:40:11;;;;;;;4.20;3.45;;;;;;;;;;4924330;29;20024;-85
2021/09/16 09:43:18;;;;;;;5.57;3.60;;;;;;;;;;4913349;29;20114;-85
2021/09/16 09:46:08;;;;;;;8.60;3.60;;;;;;;;;;4922271;29;20118;-86
2021/09/16 09:48:59;;;;;;;5.80;3.53;;;;;;;;;;4918944;29;20030;-86
2021/09/16 09:52:02;;;;;;;3.92;3.20;;;;;;;;;;4904603;29;20024;-85
2021/09/16 09:54:48;;;;;;;7.50;4.07;;;;;;;;;;4921360;29;20068;-87
2021/09/16 09:57:36;;;;;;;6.40;3.90;;;;;;;;;;4922533;29;20028;-88
2021/09/16 10:00:23;;;;;;;3.78;3.38;;;;;;;;;;4918832;29;20032;-86
2021/09/16 10:03:08;;;;;;;5.00;3.33;;;;;;;;;;4918966;29;20499;-87
2021/09/16 10:05:54;;;;;;;5.00;3.50;;;;;;;;;;4917554;29;20108;-85
2021/09/16 10:08:39;;;;;;;6.18;4.85;;;;;;;;;;4922740;29;20028;-85
2021/09/16 10:11:35;;;;;;;6.53;4.80;;;;;;;;;;4920043;29;20095;-84
2021/09/16 10:14:20;;;;;;;6.75;5.53;;;;;;;;;;4919235;29;20027;-85
2021/09/16 10:17:05;;;;;;;10.80;8.02;;;;;;;;;;4912803;29;20034;-85
2021/09/16 10:19:51;;;;;;;10.90;8.13;;;;;;;;;;4920279;29;20027;-87
2021/09/16 10:22:37;;;;;;;11.15;8.18;;;;;;;;;;4901645;29;20060;-84
2021/09/16 10:25:23;;;;;;;11.65;8.00;;;;;;;;;;4916392;29;20114;-83
2021/09/16 10:28:09;;;;;;;9.23;7.50;;;;;;;;;;4918254;29;20493;-83
2021/09/16 10:30:54;;;;;;;8.85;6.57;;;;;;;;;;4932457;29;20032;-83
2021/09/16 10:33:39;;;;;;;11.00;7.43;;;;;;;;;;4916424;29;20126;-84
2021/09/16 10:36:24;;;;;;;8.38;7.47;;;;;;;;;;4922669;29;20031;-85
2021/09/16 10:39:17;;;;;;;9.98;6.95;;;;;;;;;;4918674;29;20070;-85
2021/09/16 10:42:02;;;;;;;10.55;8.00;;;;;;;;;;4912504;29;20028;-84
2021/09/16 10:45:03;;;;;;;9.68;7.65;;;;;;;;;;4917560;29;20685;-85
2021/09/16 10:48:08;;;;;;;12.88;9.10;;;;;;;;;;4911055;29;20027;-86
2021/09/16 10:50:55;;;;;;;11.38;8.07;;;;;;;;;;4911260;29;20083;-86
2021/09/16 10:53:45;;;;;;;8.18;6.72;;;;;;;;;;4916969;29;20031;-86
2021/09/16 10:56:30;;;;;;;11.02;8.32;;;;;;;;;;4919767;29;20075;-86
2021/09/16 10:59:16;;;;;;;11.88;9.55;;;;;;;;;;4917807;29;20509;-86
2021/09/16 11:02:01;;;;;;;11.05;9.35;;;;;;;;;;4913877;29;20043;-88
2021/09/16 11:04:59;;;;;;;11.48;9.65;;;;;;;;;;4916385;29;20031;-87
2021/09/16 11:07:49;;;;;;;14.35;10.10;;;;;;;;;;4918945;29;20062;-85
2021/09/16 11:10:37;;;;;;;15.85;12.02;;;;;;;;;;4914343;29;20059;-86
2021/09/16 11:13:34;;;;;;;16.00;11.70;;;;;;;;;;4902720;29;20031;-84
2021/09/16 11:16:20;;;;;;;15.15;10.52;;;;;;;;;;4906641;29;20271;-86
2021/09/16 11:19:06;;;;;;;14.70;11.45;;;;;;;;;;4921480;29;20031;-83
2021/09/16 11:22:05;;;;;;;15.63;10.43;;;;;;;;;;4919051;29;20032;-85
2021/09/16 11:24:53;;;;;;;14.45;10.50;;;;;;;;;;4931538;29;20031;-84
2021/09/16 11:27:39;;;;;;;15.33;11.07;;;;;;;;;;4923601;29;20427;-83
2021/09/16 11:30:25;;;;;;;15.68;11.13;;;;;;;;;;4928987;29;20261;-85
2021/09/16 11:33:12;;;;;;;15.00;11.70;;;;;;;;;;4932397;29;20027;-84
2021/09/16 11:36:04;;;;;;;14.88;11.05;;;;;;;;;;4922456;29;20526;-83
2021/09/16 11:39:09;;;;;;;14.40;11.73;;;;;;;;;;4915235;29;20030;-85
2021/09/16 11:42:08;;;;;;;16.17;13.38;;;;;;;;;;4935123;29;20043;-85
2021/09/16 11:45:13;;;;;;;16.70;11.20;;;;;;;;;;4933687;29;20060;-84
2021/09/16 11:48:07;;;;;;;15.77;11.82;;;;;;;;;;4925635;29;20106;-86
2021/09/16 11:50:54;;;;;;;18.05;11.95;;;;;;;;;;4919211;29;20526;-86
2021/09/16 11:53:40;;;;;;;17.05;11.70;;;;;;;;;;4926764;29;20124;-86
2021/09/16 11:56:25;;;;;;;17.55;12.73;;;;;;;;;;4927026;29;20023;-85
2021/09/16 11:59:10;;;;;;;15.85;11.25;;;;;;;;;;4917530;29;20031;-85
2021/09/16 12:01:56;;;;;;;17.02;12.73;;;;;;;;;;4913888;29;20036;-87
2021/09/16 12:04:45;;;;;;;17.05;12.82;;;;;;;;;;4918306;29;20038;-87
2021/09/16 12:07:31;;;;;;;17.65;12.68;;;;;;;;;;4918948;29;20039;-90
2021/09/16 12:10:16;;;;;;;18.23;14.63;;;;;;;;;;4928499;29;20027;-89
2021/09/16 12:13:01;;;;;;;15.40;13.10;;;;;;;;;;4915600;29;20027;-89
2021/09/16 12:15:48;;;;;;;20.10;15.02;;;;;;;;;;4906172;29;20123;-89
2021/09/16 12:18:37;;;;;;;18.00;13.80;;;;;;;;;;4928048;29;20054;-87
2021/09/16 12:21:28;;;;;;;19.27;15.10;;;;;;;;;;4924989;29;20114;-88
2021/09/16 12:24:18;;;;;;;22.25;15.98;;;;;;;;;;4931468;29;20039;-87
2021/09/16 12:27:04;;;;;;;17.95;15.13;;;;;;;;;;4912743;29;20694;-88
2021/09/16 12:29:54;;;;;;;22.42;16.27;;;;;;;;;;4923685;29;20027;-89
2021/09/16 12:32:39;;;;;;;20.08;16.25;;;;;;;;;;4926133;29;20437;-87
2021/09/16 12:35:25;;;;;;;19.48;15.57;;;;;;;;;;4928155;29;20159;-88
2021/09/16 12:38:10;;;;;;;20.15;16.42;;;;;;;;;;4917763;29;20111;-88
2021/09/16 12:40:56;;;;;;;20.67;17.17;;;;;;;;;;4918162;29;20034;-86
2021/09/16 12:43:41;;;;;;;22.48;17.65;;;;;;;;;;4908735;29;20075;-85
2021/09/16 12:46:27;;;;;;;24.40;17.50;;;;;;;;;;4922289;29;20086;-88
2021/09/16 12:49:26;;;;;;;24.17;17.83;;;;;;;;;;4915302;29;20107;-89
2021/09/16 12:52:18;;;;;;;20.35;16.67;;;;;;;;;;4917323;29;20086;-89
2021/09/16 12:55:09;;;;;;;21.48;16.60;;;;;;;;;;4918420;29;20063;-90
2021/09/16 12:58:04;;;;;;;19.08;16.83;;;;;;;;;;4918076;29;20074;-89
2021/09/16 13:01:00;;;;;;;20.33;17.15;;;;;;;;;;4912957;29;20028;-85
2021/09/16 13:04:04;;;;;;;23.40;18.70;;;;;;;;;;4921454;29;20028;-85
2021/09/16 13:06:50;;;;;;;22.90;18.08;;;;;;;;;;4916483;29;20018;-83
2021/09/16 13:09:35;;;;;;;24.02;16.33;;;;;;;;;;4916509;29;20031;-83
2021/09/16 13:12:20;;;;;;;19.45;16.40;;;;;;;;;;4913155;29;20170;-84
2021/09/16 13:15:07;;;;;;;21.48;18.67;;;;;;;;;;4916724;29;20023;-83
2021/09/16 13:17:52;;;;;;;22.27;16.92;;;;;;;;;;4916493;29;20075;-81
2021/09/16 13:20:38;;;;;;;20.98;17.05;;;;;;;;;;4911946;29;20664;-84
2021/09/16 13:23:26;;;;;;;23.98;17.25;;;;;;;;;;4908082;29;20028;-82
2021/09/16 13:26:11;;;;;;;20.08;17.90;;;;;;;;;;4913128;29;20027;-82
2021/09/16 13:28:57;;;;;;;20.90;17.40;;;;;;;;;;4915546;29;20107;-84
2021/09/16 13:31:45;;;;;;;23.63;18.20;;;;;;;;;;4915639;29;20027;-83
2021/09/16 13:34:30;;;;;;;21.08;16.27;;;;;;;;;;4915084;29;20685;-84
2021/09/16 13:37:16;;;;;;;21.48;17.40;;;;;;;;;;4917002;29;20024;-84
2021/09/16 13:40:02;;;;;;;23.80;18.45;;;;;;;;;;4913908;29;20024;-83
2021/09/16 13:42:47;;;;;;;23.58;18.38;;;;;;;;;;4908164;29;20051;-84
2021/09/16 13:45:32;;;;;;;24.15;19.35;;;;;;;;;;4921128;29;20020;-84
2021/09/16 13:48:18;;;;;;;20.45;17.98;;;;;;;;;;4920078;29;20028;-84
2021/09/16 13:51:03;;;;;;;23.98;17.95;;;;;;;;;;4917558;29;20391;-85
2021/09/16 13:53:48;;;;;;;28.45;18.35;;;;;;;;;;4920664;29;20023;-86
2021/09/16 13:56:34;;;;;;;20.88;16.40;;;;;;;;;;4919325;29;20028;-87
2021/09/16 13:59:19;;;;;;;19.40;15.98;;;;;;;;;;4920525;29;20116;-85
2021/09/16 14:02:04;;;;;;;19.92;16.60;;;;;;;;;;4918935;29;20586;-86
2021/09/16 14:04:49;;;;;;;24.15;16.88;;;;;;;;;;4919952;29;20044;-87
2021/09/16 14:07:35;;;;;;;21.33;16.98;;;;;;;;;;4919110;29;20027;-86
2021/09/16 14:10:20;;;;;;;21.40;17.70;;;;;;;;;;4919432;29;20031;-83
2021/09/16 14:13:05;;;;;;;16.65;14.85;;;;;;;;;;4918914;29;20648;-85
2021/09/16 14:15:51;;;;;;;17.73;15.82;;;;;;;;;;4919245;29;20031;-84
2021/09/16 14:18:36;;;;;;;19.88;15.93;;;;;;;;;;4919521;29;20116;-83
2021/09/16 14:21:21;;;;;;;20.23;16.35;;;;;;;;;;4914371;29;20016;-83
2021/09/16 14:24:08;;;;;;;19.98;15.00;;;;;;;;;;4915940;29;20095;-86
2021/09/16 14:26:54;;;;;;;20.20;14.75;;;;;;;;;;4920207;29;20092;-91
2021/09/16 14:29:40;;;;;;;19.65;13.85;;;;;;;;;;4918352;29;20102;-88
2021/09/16 14:32:25;;;;;;;16.35;14.25;;;;;;;;;;4917292;29;20274;-86
2021/09/16 14:35:25;;;;;;;15.45;12.52;;;;;;;;;;4919455;29;20106;-85
2021/09/16 14:38:12;;;;;;;18.10;13.15;;;;;;;;;;4915525;29;20028;-88
2021/09/16 14:40:57;;;;;;;13.10;11.70;;;;;;;;;;4920924;29;20058;-86
2021/09/16 14:43:43;;;;;;;16.15;11.63;;;;;;;;;;4913656;29;20071;-86
2021/09/16 14:46:28;;;;;;;12.93;10.27;;;;;;;;;;4918584;29;20062;-86
2021/09/16 14:49:16;;;;;;;13.80;10.70;;;;;;;;;;4918741;29;20019;-86
2021/09/16 14:52:01;;;;;;;14.40;9.63;;;;;;;;;;4918577;29;20059;-86
2021/09/16 14:54:47;;;;;;;13.48;10.40;;;;;;;;;;4919109;29;20106;-87
2021/09/16 14:57:32;;;;;;;17.25;10.80;;;;;;;;;;4912633;29;20030;-86
2021/09/16 15:00:18;;;;;;;13.85;10.98;;;;;;;;;;4923900;29;20028;-87
2021/09/16 15:03:04;;;;;;;14.05;9.60;;;;;;;;;;4917814;29;20028;-87
2021/09/16 15:05:49;;;;;;;16.20;11.00;;;;;;;;;;4919231;29;20039;-87
2021/09/16 15:08:34;;;;;;;15.02;10.45;;;;;;;;;;4918397;29;20078;-86
2021/09/16 15:11:20;;;;;;;12.55;9.65;;;;;;;;;;4919673;29;20030;-86
2021/09/16 15:14:05;;;;;;;12.32;9.90;;;;;;;;;;4919402;29;20615;-86
2021/09/16 15:16:50;;;;;;;14.38;11.00;;;;;;;;;;4919572;29;20039;-87
2021/09/16 15:19:39;;;;;;;16.45;11.25;;;;;;;;;;4915574;29;20031;-87
2021/09/16 15:22:24;;;;;;;13.85;9.80;;;;;;;;;;4920637;29;20019;-87
2021/09/16 15:25:10;;;;;;;15.45;10.13;;;;;;;;;;4918769;29;20031;-87
2021/09/16 15:27:55;;;;;;;14.48;11.20;;;;;;;;;;4919558;29;20028;-87
2021/09/16 15:30:41;;;;;;;15.98;11.52;;;;;;;;;;4920678;29;20106;-86
2021/09/16 15:33:30;;;;;;;12.57;10.25;;;;;;;;;;4917300;29;20107;-87
2021/09/16 15:36:15;;;;;;;12.25;10.00;;;;;;;;;;4919170;29;20023;-88
2021/09/16 15:39:00;;;;;;;10.85;8.75;;;;;;;;;;4918627;29;20032;-88
2021/09/16 15:41:47;;;;;;;12.35;9.85;;;;;;;;;;4921417;29;20094;-86
2021/09/16 15:44:33;;;;;;;11.90;8.75;;;;;;;;;;4904821;29;20059;-87
2021/09/16 15:47:19;;;;;;;11.02;8.38;;;;;;;;;;4915013;29;20031;-87
2021/09/16 15:50:05;;;;;;;13.63;9.45;;;;;;;;;;4918527;29;20039;-88
2021/09/16 15:52:50;;;;;;;14.48;8.48;;;;;;;;;;4919091;29;20059;-88
2021/09/16 15:55:36;;;;;;;11.82;8.40;;;;;;;;;;4919631;29;20111;-88
2021/09/16 15:58:21;;;;;;;11.30;8.68;;;;;;;;;;4918726;29;20023;-87
2021/09/16 16:01:06;;;;;;;12.85;8.55;;;;;;;;;;4918951;29;20027;-87
2021/09/16 16:03:52;;;;;;;12.30;8.40;;;;;;;;;;4914529;29;20470;-88
2021/09/16 16:06:37;;;;;;;16.58;8.25;;;;;;;;;;4923436;29;20114;-86
2021/09/16 16:09:22;;;;;;;11.77;7.75;;;;;;;;;;4919031;29;20024;-87
2021/09/16 16:12:08;;;;;;;10.80;7.70;;;;;;;;;;4918741;29;20027;-87
2021/09/16 16:14:53;;;;;;;14.50;6.97;;;;;;;;;;4916602;29;20038;-86
2021/09/16 16:17:39;;;;;;;8.40;6.72;;;;;;;;;;4916018;29;20028;-87
2021/09/16 16:20:24;;;;;;;11.98;7.07;;;;;;;;;;4919598;29;20119;-86
2021/09/16 16:23:09;;;;;;;11.05;7.60;;;;;;;;;;4912359;29;20027;-87
2021/09/16 16:25:54;;;;;;;10.77;7.25;;;;;;;;;;4909211;29;20439;-86
2021/09/16 16:28:40;;;;;;;9.90;6.50;;;;;;;;;;4914716;29;20050;-87
2021/09/16 16:31:27;;;;;;;11.00;6.68;;;;;;;;;;4902183;29;20035;-87